sensor_id;sensor_type;location;lat;lon;timestamp;P1;durP1;ratioP1;P2;durP2;ratioP2
5295;SDS011;2670;42.720;23.336;2022-07-23T00:01:52;15.53;;;9.20;;
5295;SDS011;2670;42.720;23.336;2022-07-23T00:04:19;17.83;;;9.30;;
5295;SDS011;2670;42.720;23.336;2022-07-23T00:06:45;15.70;;;9.70;;
5295;SDS011;2670;42.720;23.336;2022-07-23T00:09:12;23.07;;;10.37;;
5295;SDS011;2670;42.720;23.336;2022-07-23T00:11:39;15.90;;;9.20;;
5295;SDS011;2670;42.720;23.336;2022-07-23T00:14:06;20.53;;;8.63;;
5295;SDS011;2670;42.720;23.336;2022-07-23T00:16:32;17.00;;;8.93;;
5295;SDS011;2670;42.720;23.336;2022-07-23T00:19:00;19.87;;;9.83;;
5295;SDS011;2670;42.720;23.336;2022-07-23T00:21:27;15.83;;;8.83;;
5295;SDS011;2670;42.720;23.336;2022-07-23T00:23:54;19.73;;;9.70;;
5295;SDS011;2670;42.720;23.336;2022-07-23T00:26:21;13.27;;;8.87;;
5295;SDS011;2670;42.720;23.336;2022-07-23T00:28:48;14.33;;;9.43;;
5295;SDS011;2670;42.720;23.336;2022-07-23T00:31:14;15.80;;;9.30;;
5295;SDS011;2670;42.720;23.336;2022-07-23T00:33:41;24.60;;;15.47;;
5295;SDS011;2670;42.720;23.336;2022-07-23T00:36:09;51.03;;;28.07;;
5295;SDS011;2670;42.720;23.336;2022-07-23T00:38:36;56.43;;;31.20;;
5295;SDS011;2670;42.720;23.336;2022-07-23T00:41:03;60.83;;;32.67;;
5295;SDS011;2670;42.720;23.336;2022-07-23T00:43:30;57.13;;;31.93;;
5295;SDS011;2670;42.720;23.336;2022-07-23T00:45:56;47.10;;;29.73;;
5295;SDS011;2670;42.720;23.336;2022-07-23T00:48:23;48.13;;;26.80;;
5295;SDS011;2670;42.720;23.336;2022-07-23T00:50:50;51.67;;;29.27;;
5295;SDS011;2670;42.720;23.336;2022-07-23T00:53:18;47.23;;;29.07;;
5295;SDS011;2670;42.720;23.336;2022-07-23T00:55:46;54.87;;;29.43;;
5295;SDS011;2670;42.720;23.336;2022-07-23T00:58:13;49.03;;;26.67;;
5295;SDS011;2670;42.720;23.336;2022-07-23T01:00:41;47.50;;;26.90;;
5295;SDS011;2670;42.720;23.336;2022-07-23T01:03:08;35.73;;;21.07;;
5295;SDS011;2670;42.720;23.336;2022-07-23T01:05:35;36.73;;;19.90;;
5295;SDS011;2670;42.720;23.336;2022-07-23T01:08:02;43.07;;;18.47;;
5295;SDS011;2670;42.720;23.336;2022-07-23T01:10:30;29.47;;;16.63;;
5295;SDS011;2670;42.720;23.336;2022-07-23T01:12:57;29.20;;;17.57;;
5295;SDS011;2670;42.720;23.336;2022-07-23T01:15:26;25.87;;;16.03;;
5295;SDS011;2670;42.720;23.336;2022-07-23T01:17:53;24.00;;;15.63;;
5295;SDS011;2670;42.720;23.336;2022-07-23T01:20:20;23.30;;;14.57;;
5295;SDS011;2670;42.720;23.336;2022-07-23T01:22:49;21.97;;;14.70;;
5295;SDS011;2670;42.720;23.336;2022-07-23T01:25:16;23.63;;;14.97;;
5295;SDS011;2670;42.720;23.336;2022-07-23T01:27:43;19.63;;;12.43;;
5295;SDS011;2670;42.720;23.336;2022-07-23T01:30:10;30.70;;;12.37;;
5295;SDS011;2670;42.720;23.336;2022-07-23T01:32:38;20.63;;;11.40;;
5295;SDS011;2670;42.720;23.336;2022-07-23T01:35:05;19.07;;;10.53;;
5295;SDS011;2670;42.720;23.336;2022-07-23T01:37:33;20.77;;;12.23;;
5295;SDS011;2670;42.720;23.336;2022-07-23T01:40:01;21.33;;;13.17;;
5295;SDS011;2670;42.720;23.336;2022-07-23T01:42:29;22.20;;;14.23;;
5295;SDS011;2670;42.720;23.336;2022-07-23T01:44:56;28.37;;;15.70;;
5295;SDS011;2670;42.720;23.336;2022-07-23T01:47:22;25.90;;;14.80;;
5295;SDS011;2670;42.720;23.336;2022-07-23T01:49:49;23.43;;;13.93;;
5295;SDS011;2670;42.720;23.336;2022-07-23T01:52:16;18.00;;;12.20;;
5295;SDS011;2670;42.720;23.336;2022-07-23T01:54:43;15.30;;;11.40;;
5295;SDS011;2670;42.720;23.336;2022-07-23T01:57:11;21.73;;;10.47;;
5295;SDS011;2670;42.720;23.336;2022-07-23T01:59:37;15.67;;;10.43;;
5295;SDS011;2670;42.720;23.336;2022-07-23T02:02:04;20.80;;;10.33;;
5295;SDS011;2670;42.720;23.336;2022-07-23T02:04:31;19.90;;;10.77;;
5295;SDS011;2670;42.720;23.336;2022-07-23T02:07:00;16.17;;;9.90;;
5295;SDS011;2670;42.720;23.336;2022-07-23T02:09:27;16.37;;;9.27;;
5295;SDS011;2670;42.720;23.336;2022-07-23T02:11:54;13.87;;;10.03;;
5295;SDS011;2670;42.720;23.336;2022-07-23T02:14:22;13.73;;;8.80;;
5295;SDS011;2670;42.720;23.336;2022-07-23T02:16:49;16.03;;;10.13;;
5295;SDS011;2670;42.720;23.336;2022-07-23T02:19:16;12.63;;;9.10;;
5295;SDS011;2670;42.720;23.336;2022-07-23T02:21:43;14.93;;;8.77;;
5295;SDS011;2670;42.720;23.336;2022-07-23T02:24:10;16.63;;;9.90;;
5295;SDS011;2670;42.720;23.336;2022-07-23T02:26:36;14.23;;;9.10;;
5295;SDS011;2670;42.720;23.336;2022-07-23T02:29:03;19.00;;;10.50;;
5295;SDS011;2670;42.720;23.336;2022-07-23T02:31:32;20.90;;;9.27;;
5295;SDS011;2670;42.720;23.336;2022-07-23T02:33:59;15.53;;;8.83;;
5295;SDS011;2670;42.720;23.336;2022-07-23T02:36:26;13.27;;;8.80;;
5295;SDS011;2670;42.720;23.336;2022-07-23T02:38:54;14.10;;;9.30;;
5295;SDS011;2670;42.720;23.336;2022-07-23T02:41:20;14.43;;;9.17;;
5295;SDS011;2670;42.720;23.336;2022-07-23T02:43:47;15.87;;;9.63;;
5295;SDS011;2670;42.720;23.336;2022-07-23T02:46:14;16.30;;;9.53;;
5295;SDS011;2670;42.720;23.336;2022-07-23T02:48:42;18.20;;;10.10;;
5295;SDS011;2670;42.720;23.336;2022-07-23T02:51:09;15.47;;;9.77;;
5295;SDS011;2670;42.720;23.336;2022-07-23T02:53:36;19.87;;;10.20;;
5295;SDS011;2670;42.720;23.336;2022-07-23T02:56:03;28.43;;;10.87;;
5295;SDS011;2670;42.720;23.336;2022-07-23T02:58:30;13.70;;;8.90;;
5295;SDS011;2670;42.720;23.336;2022-07-23T03:00:56;18.57;;;9.90;;
5295;SDS011;2670;42.720;23.336;2022-07-23T03:03:23;16.20;;;9.37;;
5295;SDS011;2670;42.720;23.336;2022-07-23T03:05:51;15.77;;;9.07;;
5295;SDS011;2670;42.720;23.336;2022-07-23T03:08:18;16.57;;;8.77;;
5295;SDS011;2670;42.720;23.336;2022-07-23T03:10:44;17.77;;;9.43;;
5295;SDS011;2670;42.720;23.336;2022-07-23T03:13:11;22.40;;;10.63;;
5295;SDS011;2670;42.720;23.336;2022-07-23T03:15:38;16.60;;;9.30;;
5295;SDS011;2670;42.720;23.336;2022-07-23T03:18:05;14.97;;;9.80;;
5295;SDS011;2670;42.720;23.336;2022-07-23T03:20:31;18.90;;;9.80;;
5295;SDS011;2670;42.720;23.336;2022-07-23T03:22:59;29.53;;;9.80;;
5295;SDS011;2670;42.720;23.336;2022-07-23T03:25:26;30.43;;;10.63;;
5295;SDS011;2670;42.720;23.336;2022-07-23T03:27:53;16.47;;;9.53;;
5295;SDS011;2670;42.720;23.336;2022-07-23T03:30:20;22.73;;;9.87;;
5295;SDS011;2670;42.720;23.336;2022-07-23T03:32:47;15.50;;;9.60;;
5295;SDS011;2670;42.720;23.336;2022-07-23T03:35:13;23.90;;;9.83;;
5295;SDS011;2670;42.720;23.336;2022-07-23T03:37:40;18.60;;;10.03;;
5295;SDS011;2670;42.720;23.336;2022-07-23T03:40:09;16.03;;;8.77;;
5295;SDS011;2670;42.720;23.336;2022-07-23T03:42:36;11.93;;;8.80;;
5295;SDS011;2670;42.720;23.336;2022-07-23T03:45:05;27.67;;;10.03;;
5295;SDS011;2670;42.720;23.336;2022-07-23T03:47:32;16.43;;;10.00;;
5295;SDS011;2670;42.720;23.336;2022-07-23T03:49:58;14.37;;;8.80;;
5295;SDS011;2670;42.720;23.336;2022-07-23T03:52:25;16.73;;;10.17;;
5295;SDS011;2670;42.720;23.336;2022-07-23T03:54:52;16.13;;;9.07;;
5295;SDS011;2670;42.720;23.336;2022-07-23T03:57:20;17.03;;;10.27;;
5295;SDS011;2670;42.720;23.336;2022-07-23T03:59:47;25.63;;;9.67;;
5295;SDS011;2670;42.720;23.336;2022-07-23T04:02:13;17.47;;;9.63;;
5295;SDS011;2670;42.720;23.336;2022-07-23T04:04:40;16.20;;;10.33;;
5295;SDS011;2670;42.720;23.336;2022-07-23T04:07:07;23.93;;;10.10;;
5295;SDS011;2670;42.720;23.336;2022-07-23T04:09:33;15.73;;;9.87;;
5295;SDS011;2670;42.720;23.336;2022-07-23T04:12:00;16.57;;;9.80;;
5295;SDS011;2670;42.720;23.336;2022-07-23T04:14:28;21.17;;;10.13;;
5295;SDS011;2670;42.720;23.336;2022-07-23T04:16:55;29.70;;;9.00;;
5295;SDS011;2670;42.720;23.336;2022-07-23T04:19:22;16.83;;;9.37;;
5295;SDS011;2670;42.720;23.336;2022-07-23T04:21:48;14.00;;;8.13;;
5295;SDS011;2670;42.720;23.336;2022-07-23T04:24:15;22.27;;;8.00;;
5295;SDS011;2670;42.720;23.336;2022-07-23T04:26:42;16.00;;;8.00;;
5295;SDS011;2670;42.720;23.336;2022-07-23T04:29:08;20.50;;;7.93;;
5295;SDS011;2670;42.720;23.336;2022-07-23T04:31:37;23.43;;;8.47;;
5295;SDS011;2670;42.720;23.336;2022-07-23T04:34:03;19.63;;;8.80;;
5295;SDS011;2670;42.720;23.336;2022-07-23T04:36:30;13.83;;;8.60;;
5295;SDS011;2670;42.720;23.336;2022-07-23T04:38:57;12.87;;;8.77;;
5295;SDS011;2670;42.720;23.336;2022-07-23T04:41:24;17.30;;;9.93;;
5295;SDS011;2670;42.720;23.336;2022-07-23T04:43:50;32.10;;;10.23;;
5295;SDS011;2670;42.720;23.336;2022-07-23T04:46:17;13.13;;;9.73;;
5295;SDS011;2670;42.720;23.336;2022-07-23T04:48:45;17.80;;;9.43;;
5295;SDS011;2670;42.720;23.336;2022-07-23T04:51:12;21.40;;;9.23;;
5295;SDS011;2670;42.720;23.336;2022-07-23T04:53:39;15.83;;;10.23;;
5295;SDS011;2670;42.720;23.336;2022-07-23T04:56:06;16.43;;;9.63;;
5295;SDS011;2670;42.720;23.336;2022-07-23T04:58:33;25.03;;;10.20;;
5295;SDS011;2670;42.720;23.336;2022-07-23T05:00:59;19.97;;;9.93;;
5295;SDS011;2670;42.720;23.336;2022-07-23T05:03:26;17.83;;;9.23;;
5295;SDS011;2670;42.720;23.336;2022-07-23T05:05:54;26.93;;;10.37;;
5295;SDS011;2670;42.720;23.336;2022-07-23T05:08:21;19.40;;;9.83;;
5295;SDS011;2670;42.720;23.336;2022-07-23T05:10:48;29.43;;;11.27;;
5295;SDS011;2670;42.720;23.336;2022-07-23T05:13:15;22.20;;;10.07;;
5295;SDS011;2670;42.720;23.336;2022-07-23T05:15:42;14.00;;;9.47;;
5295;SDS011;2670;42.720;23.336;2022-07-23T05:18:10;13.10;;;9.73;;
5295;SDS011;2670;42.720;23.336;2022-07-23T05:20:37;16.07;;;10.03;;
5295;SDS011;2670;42.720;23.336;2022-07-23T05:23:05;22.77;;;9.70;;
5295;SDS011;2670;42.720;23.336;2022-07-23T05:25:32;15.90;;;10.87;;
5295;SDS011;2670;42.720;23.336;2022-07-23T05:27:58;23.67;;;11.30;;
5295;SDS011;2670;42.720;23.336;2022-07-23T05:30:25;12.43;;;10.07;;
5295;SDS011;2670;42.720;23.336;2022-07-23T05:32:52;23.00;;;11.30;;
5295;SDS011;2670;42.720;23.336;2022-07-23T05:35:18;19.23;;;10.97;;
5295;SDS011;2670;42.720;23.336;2022-07-23T05:37:45;18.70;;;10.57;;
5295;SDS011;2670;42.720;23.336;2022-07-23T05:40:14;18.37;;;11.10;;
5295;SDS011;2670;42.720;23.336;2022-07-23T05:42:41;22.80;;;11.23;;
5295;SDS011;2670;42.720;23.336;2022-07-23T05:45:08;17.80;;;11.30;;
5295;SDS011;2670;42.720;23.336;2022-07-23T05:47:39;17.83;;;11.13;;
5295;SDS011;2670;42.720;23.336;2022-07-23T05:50:07;21.33;;;11.57;;
5295;SDS011;2670;42.720;23.336;2022-07-23T05:52:34;32.97;;;11.10;;
5295;SDS011;2670;42.720;23.336;2022-07-23T05:55:01;18.90;;;10.17;;
5295;SDS011;2670;42.720;23.336;2022-07-23T05:57:29;16.20;;;10.67;;
5295;SDS011;2670;42.720;23.336;2022-07-23T05:59:55;17.50;;;11.57;;
5295;SDS011;2670;42.720;23.336;2022-07-23T06:02:22;33.33;;;12.43;;
5295;SDS011;2670;42.720;23.336;2022-07-23T06:04:49;25.47;;;11.93;;
5295;SDS011;2670;42.720;23.336;2022-07-23T06:07:16;29.07;;;11.40;;
5295;SDS011;2670;42.720;23.336;2022-07-23T06:09:42;22.37;;;12.07;;
5295;SDS011;2670;42.720;23.336;2022-07-23T06:12:09;28.63;;;12.50;;
5295;SDS011;2670;42.720;23.336;2022-07-23T06:14:37;21.00;;;12.40;;
5295;SDS011;2670;42.720;23.336;2022-07-23T06:17:04;33.27;;;12.70;;
5295;SDS011;2670;42.720;23.336;2022-07-23T06:19:30;28.13;;;13.10;;
5295;SDS011;2670;42.720;23.336;2022-07-23T06:21:57;27.43;;;13.03;;
5295;SDS011;2670;42.720;23.336;2022-07-23T06:24:24;27.50;;;13.57;;
5295;SDS011;2670;42.720;23.336;2022-07-23T06:26:51;33.30;;;15.10;;
5295;SDS011;2670;42.720;23.336;2022-07-23T06:29:17;24.50;;;13.53;;
5295;SDS011;2670;42.720;23.336;2022-07-23T06:31:45;33.20;;;12.33;;
5295;SDS011;2670;42.720;23.336;2022-07-23T06:34:12;38.20;;;12.20;;
5295;SDS011;2670;42.720;23.336;2022-07-23T06:36:39;21.93;;;12.73;;
5295;SDS011;2670;42.720;23.336;2022-07-23T06:39:06;30.50;;;12.90;;
5295;SDS011;2670;42.720;23.336;2022-07-23T06:41:32;20.47;;;11.50;;
5295;SDS011;2670;42.720;23.336;2022-07-23T06:43:59;22.80;;;12.17;;
5295;SDS011;2670;42.720;23.336;2022-07-23T06:46:26;20.17;;;10.93;;
5295;SDS011;2670;42.720;23.336;2022-07-23T06:48:54;18.80;;;10.70;;
5295;SDS011;2670;42.720;23.336;2022-07-23T06:51:22;18.40;;;10.10;;
5295;SDS011;2670;42.720;23.336;2022-07-23T06:53:48;16.90;;;9.27;;
5295;SDS011;2670;42.720;23.336;2022-07-23T06:56:15;22.10;;;10.00;;
5295;SDS011;2670;42.720;23.336;2022-07-23T06:58:42;20.63;;;9.90;;
5295;SDS011;2670;42.720;23.336;2022-07-23T07:01:09;14.47;;;9.20;;
5295;SDS011;2670;42.720;23.336;2022-07-23T07:03:35;15.73;;;9.97;;
5295;SDS011;2670;42.720;23.336;2022-07-23T07:06:04;14.47;;;9.10;;
5295;SDS011;2670;42.720;23.336;2022-07-23T07:08:30;15.80;;;9.30;;
5295;SDS011;2670;42.720;23.336;2022-07-23T07:10:57;18.33;;;9.67;;
5295;SDS011;2670;42.720;23.336;2022-07-23T07:13:24;17.70;;;9.07;;
5295;SDS011;2670;42.720;23.336;2022-07-23T07:15:50;22.33;;;9.80;;
5295;SDS011;2670;42.720;23.336;2022-07-23T07:18:17;18.90;;;9.10;;
5295;SDS011;2670;42.720;23.336;2022-07-23T07:20:44;19.43;;;9.17;;
5295;SDS011;2670;42.720;23.336;2022-07-23T07:23:13;19.03;;;9.20;;
5295;SDS011;2670;42.720;23.336;2022-07-23T07:25:39;13.10;;;8.37;;
5295;SDS011;2670;42.720;23.336;2022-07-23T07:28:06;13.40;;;8.50;;
5295;SDS011;2670;42.720;23.336;2022-07-23T07:30:33;20.73;;;8.97;;
5295;SDS011;2670;42.720;23.336;2022-07-23T07:33:00;17.30;;;8.40;;
5295;SDS011;2670;42.720;23.336;2022-07-23T07:35:27;22.10;;;8.57;;
5295;SDS011;2670;42.720;23.336;2022-07-23T07:37:54;14.43;;;8.70;;
5295;SDS011;2670;42.720;23.336;2022-07-23T07:40:22;13.50;;;8.23;;
5295;SDS011;2670;42.720;23.336;2022-07-23T07:42:49;17.30;;;9.27;;
5295;SDS011;2670;42.720;23.336;2022-07-23T07:45:17;14.13;;;7.97;;
5295;SDS011;2670;42.720;23.336;2022-07-23T07:47:45;17.80;;;8.20;;
5295;SDS011;2670;42.720;23.336;2022-07-23T07:50:12;17.17;;;8.67;;
5295;SDS011;2670;42.720;23.336;2022-07-23T07:52:39;14.10;;;7.83;;
5295;SDS011;2670;42.720;23.336;2022-07-23T07:55:07;21.53;;;8.23;;
5295;SDS011;2670;42.720;23.336;2022-07-23T07:57:36;9.43;;;6.77;;
5295;SDS011;2670;42.720;23.336;2022-07-23T08:00:04;17.03;;;9.10;;
5295;SDS011;2670;42.720;23.336;2022-07-23T08:02:39;20.30;;;8.60;;
5295;SDS011;2670;42.720;23.336;2022-07-23T08:05:06;15.70;;;7.80;;
5295;SDS011;2670;42.720;23.336;2022-07-23T08:07:34;19.93;;;7.80;;
5295;SDS011;2670;42.720;23.336;2022-07-23T08:10:00;16.13;;;8.60;;
5295;SDS011;2670;42.720;23.336;2022-07-23T08:12:27;24.77;;;8.90;;
5295;SDS011;2670;42.720;23.336;2022-07-23T08:14:55;14.03;;;7.60;;
5295;SDS011;2670;42.720;23.336;2022-07-23T08:17:22;15.30;;;7.77;;
5295;SDS011;2670;42.720;23.336;2022-07-23T08:19:49;19.00;;;8.00;;
5295;SDS011;2670;42.720;23.336;2022-07-23T08:22:15;26.13;;;8.00;;
5295;SDS011;2670;42.720;23.336;2022-07-23T08:24:42;25.50;;;7.60;;
5295;SDS011;2670;42.720;23.336;2022-07-23T08:27:09;14.30;;;8.10;;
5295;SDS011;2670;42.720;23.336;2022-07-23T08:29:35;26.70;;;8.63;;
5295;SDS011;2670;42.720;23.336;2022-07-23T08:32:04;17.23;;;8.40;;
5295;SDS011;2670;42.720;23.336;2022-07-23T08:34:31;12.80;;;8.17;;
5295;SDS011;2670;42.720;23.336;2022-07-23T08:36:58;17.37;;;8.60;;
5295;SDS011;2670;42.720;23.336;2022-07-23T08:39:24;23.40;;;9.83;;
5295;SDS011;2670;42.720;23.336;2022-07-23T08:41:52;15.00;;;8.60;;
5295;SDS011;2670;42.720;23.336;2022-07-23T08:44:19;17.60;;;8.50;;
5295;SDS011;2670;42.720;23.336;2022-07-23T08:46:46;24.80;;;7.97;;
5295;SDS011;2670;42.720;23.336;2022-07-23T08:49:15;23.03;;;7.97;;
5295;SDS011;2670;42.720;23.336;2022-07-23T08:51:42;17.13;;;8.07;;
5295;SDS011;2670;42.720;23.336;2022-07-23T08:54:09;14.77;;;8.03;;
5295;SDS011;2670;42.720;23.336;2022-07-23T08:56:36;12.77;;;8.27;;
5295;SDS011;2670;42.720;23.336;2022-07-23T08:59:03;20.90;;;7.93;;
5295;SDS011;2670;42.720;23.336;2022-07-23T09:01:30;11.60;;;7.70;;
5295;SDS011;2670;42.720;23.336;2022-07-23T09:03:57;18.63;;;8.17;;
5295;SDS011;2670;42.720;23.336;2022-07-23T09:06:25;19.10;;;8.23;;
5295;SDS011;2670;42.720;23.336;2022-07-23T09:08:52;21.50;;;8.20;;
5295;SDS011;2670;42.720;23.336;2022-07-23T09:11:18;17.10;;;6.57;;
5295;SDS011;2670;42.720;23.336;2022-07-23T09:13:46;11.73;;;7.07;;
5295;SDS011;2670;42.720;23.336;2022-07-23T09:16:15;13.93;;;8.43;;
5295;SDS011;2670;42.720;23.336;2022-07-23T09:18:44;16.20;;;6.93;;
5295;SDS011;2670;42.720;23.336;2022-07-23T09:21:23;20.73;;;7.50;;
5295;SDS011;2670;42.720;23.336;2022-07-23T09:23:57;12.83;;;7.10;;
5295;SDS011;2670;42.720;23.336;2022-07-23T09:26:27;12.27;;;7.03;;
5295;SDS011;2670;42.720;23.336;2022-07-23T09:29:03;10.97;;;6.90;;
5295;SDS011;2670;42.720;23.336;2022-07-23T09:31:47;16.23;;;7.10;;
5295;SDS011;2670;42.720;23.336;2022-07-23T09:34:17;14.73;;;7.20;;
5295;SDS011;2670;42.720;23.336;2022-07-23T09:36:47;14.63;;;7.80;;
5295;SDS011;2670;42.720;23.336;2022-07-23T09:39:14;11.37;;;7.07;;
5295;SDS011;2670;42.720;23.336;2022-07-23T09:41:47;20.00;;;7.80;;
5295;SDS011;2670;42.720;23.336;2022-07-23T09:44:15;17.53;;;7.53;;
5295;SDS011;2670;42.720;23.336;2022-07-23T09:46:44;15.40;;;7.40;;
5295;SDS011;2670;42.720;23.336;2022-07-23T09:49:13;16.23;;;6.50;;
5295;SDS011;2670;42.720;23.336;2022-07-23T09:51:47;14.17;;;6.60;;
5295;SDS011;2670;42.720;23.336;2022-07-23T09:54:26;10.27;;;6.93;;
5295;SDS011;2670;42.720;23.336;2022-07-23T09:56:59;12.70;;;6.40;;
5295;SDS011;2670;42.720;23.336;2022-07-23T09:59:28;17.13;;;6.17;;
5295;SDS011;2670;42.720;23.336;2022-07-23T10:01:56;10.03;;;6.83;;
5295;SDS011;2670;42.720;23.336;2022-07-23T10:04:24;16.63;;;6.77;;
5295;SDS011;2670;42.720;23.336;2022-07-23T10:06:54;16.57;;;6.23;;
5295;SDS011;2670;42.720;23.336;2022-07-23T10:09:23;8.60;;;5.90;;
5295;SDS011;2670;42.720;23.336;2022-07-23T10:11:52;12.83;;;6.33;;
5295;SDS011;2670;42.720;23.336;2022-07-23T10:14:43;8.77;;;6.10;;
5295;SDS011;2670;42.720;23.336;2022-07-23T10:17:11;9.57;;;5.77;;
5295;SDS011;2670;42.720;23.336;2022-07-23T10:19:38;10.97;;;6.77;;
5295;SDS011;2670;42.720;23.336;2022-07-23T10:22:07;8.83;;;5.73;;
5295;SDS011;2670;42.720;23.336;2022-07-23T10:30:36;14.50;;;6.50;;
5295;SDS011;2670;42.720;23.336;2022-07-23T10:33:12;9.47;;;5.53;;
5295;SDS011;2670;42.720;23.336;2022-07-23T10:35:47;11.57;;;6.70;;
5295;SDS011;2670;42.720;23.336;2022-07-23T10:38:21;12.87;;;5.70;;
5295;SDS011;2670;42.720;23.336;2022-07-23T10:40:54;13.30;;;5.63;;
5295;SDS011;2670;42.720;23.336;2022-07-23T10:43:22;10.67;;;5.20;;
5295;SDS011;2670;42.720;23.336;2022-07-23T10:45:49;11.03;;;6.93;;
5295;SDS011;2670;42.720;23.336;2022-07-23T10:48:17;14.80;;;6.10;;
5295;SDS011;2670;42.720;23.336;2022-07-23T11:02:37;11.93;;;6.20;;
5295;SDS011;2670;42.720;23.336;2022-07-23T11:05:07;15.53;;;6.13;;
5295;SDS011;2670;42.720;23.336;2022-07-23T11:07:35;17.63;;;6.33;;
5295;SDS011;2670;42.720;23.336;2022-07-23T11:10:05;24.63;;;9.07;;
5295;SDS011;2670;42.720;23.336;2022-07-23T11:12:33;14.00;;;5.37;;
5295;SDS011;2670;42.720;23.336;2022-07-23T11:15:04;12.83;;;6.07;;
5295;SDS011;2670;42.720;23.336;2022-07-23T11:17:33;16.20;;;6.03;;
5295;SDS011;2670;42.720;23.336;2022-07-23T11:20:18;10.90;;;6.37;;
5295;SDS011;2670;42.720;23.336;2022-07-23T11:22:47;14.27;;;6.00;;
5295;SDS011;2670;42.720;23.336;2022-07-23T11:25:30;11.53;;;6.10;;
5295;SDS011;2670;42.720;23.336;2022-07-23T11:28:09;10.13;;;5.67;;
5295;SDS011;2670;42.720;23.336;2022-07-23T11:30:40;13.80;;;5.03;;
5295;SDS011;2670;42.720;23.336;2022-07-23T11:33:21;11.30;;;6.43;;
5295;SDS011;2670;42.720;23.336;2022-07-23T11:35:59;22.00;;;5.78;;
5295;SDS011;2670;42.720;23.336;2022-07-23T11:38:28;12.57;;;5.30;;
5295;SDS011;2670;42.720;23.336;2022-07-23T11:40:59;25.60;;;5.77;;
5295;SDS011;2670;42.720;23.336;2022-07-23T11:43:26;8.90;;;5.17;;
5295;SDS011;2670;42.720;23.336;2022-07-23T11:45:53;13.73;;;5.23;;
5295;SDS011;2670;42.720;23.336;2022-07-23T11:48:24;13.53;;;5.47;;
5295;SDS011;2670;42.720;23.336;2022-07-23T11:50:53;17.43;;;5.30;;
5295;SDS011;2670;42.720;23.336;2022-07-23T11:53:22;15.60;;;5.50;;
5295;SDS011;2670;42.720;23.336;2022-07-23T11:55:49;18.80;;;5.30;;
5295;SDS011;2670;42.720;23.336;2022-07-23T11:58:18;19.58;;;5.53;;
5295;SDS011;2670;42.720;23.336;2022-07-23T12:00:45;15.97;;;5.20;;
5295;SDS011;2670;42.720;23.336;2022-07-23T12:03:12;17.37;;;5.60;;
5295;SDS011;2670;42.720;23.336;2022-07-23T12:05:38;17.83;;;5.50;;
5295;SDS011;2670;42.720;23.336;2022-07-23T12:08:06;16.33;;;5.25;;
5295;SDS011;2670;42.720;23.336;2022-07-23T12:10:35;15.57;;;5.32;;
5295;SDS011;2670;42.720;23.336;2022-07-23T12:13:03;17.23;;;6.13;;
5295;SDS011;2670;42.720;23.336;2022-07-23T12:15:33;10.45;;;5.00;;
5295;SDS011;2670;42.720;23.336;2022-07-23T12:18:03;20.10;;;5.80;;
5295;SDS011;2670;42.720;23.336;2022-07-23T12:20:32;16.45;;;5.05;;
5295;SDS011;2670;42.720;23.336;2022-07-23T12:23:02;10.30;;;4.90;;
5295;SDS011;2670;42.720;23.336;2022-07-23T12:25:30;21.38;;;5.45;;
5295;SDS011;2670;42.720;23.336;2022-07-23T12:27:59;19.90;;;7.03;;
5295;SDS011;2670;42.720;23.336;2022-07-23T12:30:33;13.50;;;5.03;;
5295;SDS011;2670;42.720;23.336;2022-07-23T12:33:03;11.00;;;4.97;;
5295;SDS011;2670;42.720;23.336;2022-07-23T12:35:35;14.40;;;5.28;;
5295;SDS011;2670;42.720;23.336;2022-07-23T12:38:06;15.50;;;5.47;;
5295;SDS011;2670;42.720;23.336;2022-07-23T12:40:34;13.05;;;5.75;;
5295;SDS011;2670;42.720;23.336;2022-07-23T12:43:04;13.75;;;5.35;;
5295;SDS011;2670;42.720;23.336;2022-07-23T12:45:44;14.05;;;5.25;;
5295;SDS011;2670;42.720;23.336;2022-07-23T12:48:17;12.30;;;5.30;;
5295;SDS011;2670;42.720;23.336;2022-07-23T12:53:31;22.60;;;5.18;;
5295;SDS011;2670;42.720;23.336;2022-07-23T12:56:00;20.67;;;5.30;;
5295;SDS011;2670;42.720;23.336;2022-07-23T12:58:39;17.45;;;4.72;;
5295;SDS011;2670;42.720;23.336;2022-07-23T13:01:09;22.35;;;5.80;;
5295;SDS011;2670;42.720;23.336;2022-07-23T13:03:37;10.75;;;4.90;;
5295;SDS011;2670;42.720;23.336;2022-07-23T13:06:06;16.17;;;4.80;;
5295;SDS011;2670;42.720;23.336;2022-07-23T13:08:34;13.07;;;6.03;;
5295;SDS011;2670;42.720;23.336;2022-07-23T13:11:02;21.25;;;5.30;;
5295;SDS011;2670;42.720;23.336;2022-07-23T13:13:31;13.00;;;4.28;;
5295;SDS011;2670;42.720;23.336;2022-07-23T13:15:59;14.48;;;4.60;;
5295;SDS011;2670;42.720;23.336;2022-07-23T13:18:28;15.23;;;4.50;;
5295;SDS011;2670;42.720;23.336;2022-07-23T13:20:55;17.40;;;5.63;;
5295;SDS011;2670;42.720;23.336;2022-07-23T13:23:22;20.65;;;4.38;;
5295;SDS011;2670;42.720;23.336;2022-07-23T13:25:49;30.65;;;6.57;;
5295;SDS011;2670;42.720;23.336;2022-07-23T13:28:17;10.25;;;4.90;;
5295;SDS011;2670;42.720;23.336;2022-07-23T13:30:46;16.05;;;5.03;;
5295;SDS011;2670;42.720;23.336;2022-07-23T13:33:14;15.68;;;5.28;;
5295;SDS011;2670;42.720;23.336;2022-07-23T13:35:43;13.05;;;5.13;;
5295;SDS011;2670;42.720;23.336;2022-07-23T13:38:10;12.13;;;5.25;;
5295;SDS011;2670;42.720;23.336;2022-07-23T13:40:38;12.80;;;4.78;;
5295;SDS011;2670;42.720;23.336;2022-07-23T13:43:07;19.35;;;4.68;;
5295;SDS011;2670;42.720;23.336;2022-07-23T13:45:34;16.50;;;4.75;;
5295;SDS011;2670;42.720;23.336;2022-07-23T13:48:01;13.13;;;4.80;;
5295;SDS011;2670;42.720;23.336;2022-07-23T13:50:28;12.25;;;4.55;;
5295;SDS011;2670;42.720;23.336;2022-07-23T13:52:56;16.38;;;5.10;;
5295;SDS011;2670;42.720;23.336;2022-07-23T13:55:23;15.32;;;4.78;;
5295;SDS011;2670;42.720;23.336;2022-07-23T13:57:50;13.10;;;4.93;;
5295;SDS011;2670;42.720;23.336;2022-07-23T14:00:17;18.45;;;5.03;;
5295;SDS011;2670;42.720;23.336;2022-07-23T14:02:43;13.55;;;4.25;;
5295;SDS011;2670;42.720;23.336;2022-07-23T14:05:10;15.07;;;4.47;;
5295;SDS011;2670;42.720;23.336;2022-07-23T14:07:37;17.90;;;5.00;;
5295;SDS011;2670;42.720;23.336;2022-07-23T14:10:09;16.55;;;5.32;;
5295;SDS011;2670;42.720;23.336;2022-07-23T14:12:36;9.88;;;4.35;;
5295;SDS011;2670;42.720;23.336;2022-07-23T14:15:04;13.48;;;4.22;;
5295;SDS011;2670;42.720;23.336;2022-07-23T14:17:33;10.32;;;5.03;;
5295;SDS011;2670;42.720;23.336;2022-07-23T14:20:00;19.35;;;5.13;;
5295;SDS011;2670;42.720;23.336;2022-07-23T14:22:26;13.65;;;4.95;;
5295;SDS011;2670;42.720;23.336;2022-07-23T14:24:53;11.70;;;4.40;;
5295;SDS011;2670;42.720;23.336;2022-07-23T14:27:24;12.30;;;4.65;;
5295;SDS011;2670;42.720;23.336;2022-07-23T14:29:51;10.55;;;4.60;;
5295;SDS011;2670;42.720;23.336;2022-07-23T14:32:18;10.05;;;4.68;;
5295;SDS011;2670;42.720;23.336;2022-07-23T14:34:44;17.63;;;5.13;;
5295;SDS011;2670;42.720;23.336;2022-07-23T14:37:11;13.20;;;5.10;;
5295;SDS011;2670;42.720;23.336;2022-07-23T14:39:38;12.60;;;4.93;;
5295;SDS011;2670;42.720;23.336;2022-07-23T14:42:05;14.77;;;5.28;;
5295;SDS011;2670;42.720;23.336;2022-07-23T14:44:34;10.98;;;4.15;;
5295;SDS011;2670;42.720;23.336;2022-07-23T14:47:02;9.48;;;4.22;;
5295;SDS011;2670;42.720;23.336;2022-07-23T14:49:30;10.13;;;4.40;;
5295;SDS011;2670;42.720;23.336;2022-07-23T14:51:57;13.18;;;4.40;;
5295;SDS011;2670;42.720;23.336;2022-07-23T14:54:24;10.18;;;5.03;;
5295;SDS011;2670;42.720;23.336;2022-07-23T14:56:52;10.85;;;4.18;;
5295;SDS011;2670;42.720;23.336;2022-07-23T14:59:19;12.07;;;5.03;;
5295;SDS011;2670;42.720;23.336;2022-07-23T15:01:47;14.02;;;4.80;;
5295;SDS011;2670;42.720;23.336;2022-07-23T15:04:14;11.43;;;4.95;;
5295;SDS011;2670;42.720;23.336;2022-07-23T15:06:41;13.73;;;4.82;;
5295;SDS011;2670;42.720;23.336;2022-07-23T15:09:08;10.65;;;4.72;;
5295;SDS011;2670;42.720;23.336;2022-07-23T15:11:35;10.40;;;4.68;;